createdAt,value
2023-02-03T00:03:19.438Z,0.91
2023-02-03T00:07:21.811Z,0.84
2023-02-03T00:11:24.224Z,0.70
2023-02-03T00:15:27.092Z,0.76
2023-02-03T00:19:29.262Z,0.80
2023-02-03T00:23:32.112Z,0.56
2023-02-03T00:27:34.183Z,0.60
2023-02-03T00:31:36.513Z,0.66
2023-02-03T00:35:40.238Z,0.51
2023-02-03T00:39:42.402Z,0.44
2023-02-03T00:43:44.948Z,0.44
2023-02-03T00:47:47.053Z,0.48
2023-02-03T00:51:49.287Z,0.39
2023-02-03T00:55:52.293Z,0.37
2023-02-03T00:59:54.959Z,0.34
2023-02-03T01:03:57.049Z,0.21
2023-02-03T01:08:00.738Z,0.23
2023-02-03T01:12:03.999Z,0.18
2023-02-03T01:16:11.648Z,0.16
2023-02-03T01:20:13.953Z,0.17
2023-02-03T01:24:15.955Z,0.10
2023-02-03T01:28:17.769Z,-0.01
2023-02-03T01:32:20.702Z,0.20
2023-02-03T01:36:24.967Z,0.04
2023-02-03T01:40:27.342Z,0.12
2023-02-03T01:44:40.072Z,0.21
2023-02-03T01:48:42.987Z,0.39
2023-02-03T01:52:49.278Z,0.34
2023-02-03T01:56:56.593Z,0.44
2023-02-03T02:00:59.024Z,0.40
2023-02-03T02:05:14.515Z,0.41
2023-02-03T02:09:17.625Z,0.44
2023-02-03T02:13:20.648Z,0.25
2023-02-03T02:17:34.406Z,0.27
2023-02-03T02:21:55.834Z,0.38
2023-02-03T02:26:18.959Z,0.30
2023-02-03T02:30:36.639Z,0.26
2023-02-03T02:34:49.389Z,0.35
2023-02-03T02:39:03.529Z,0.47
2023-02-03T02:43:53.528Z,0.40
2023-02-03T02:48:18.178Z,0.40
2023-02-03T02:52:22.418Z,0.51
2023-02-03T02:56:27.529Z,0.47
2023-02-03T03:00:34.662Z,0.39
2023-02-03T03:04:37.136Z,0.23
2023-02-03T03:08:48.980Z,0.28
2023-02-03T03:12:56.581Z,0.26
2023-02-03T03:17:12.267Z,0.29
2023-02-03T03:21:19.713Z,0.16
2023-02-03T03:25:28.214Z,-0.01
2023-02-03T03:29:50.433Z,-0.02
2023-02-03T03:33:52.619Z,-0.03
2023-02-03T03:38:00.029Z,-0.12
2023-02-03T03:42:12.537Z,-0.39
2023-02-03T03:46:20.615Z,-0.61
2023-02-03T03:50:28.055Z,-0.56
2023-02-03T03:54:32.264Z,-0.57
2023-02-03T03:58:35.371Z,-0.67
2023-02-03T04:02:39.817Z,-0.78
2023-02-03T04:06:42.305Z,-0.80
2023-02-03T04:10:44.687Z,-0.99
2023-02-03T04:14:46.670Z,-1.00
2023-02-03T04:18:48.933Z,-1.08
2023-02-03T04:22:51.265Z,-1.13
2023-02-03T04:26:53.266Z,-1.25
2023-02-03T04:30:55.208Z,-1.21
2023-02-03T04:34:58.421Z,-1.32
2023-02-03T04:39:00.401Z,-1.32
2023-02-03T04:43:07.747Z,-1.42
2023-02-03T04:47:09.739Z,-1.41
2023-02-03T04:51:11.785Z,-1.49
2023-02-03T04:55:13.797Z,-1.39
2023-02-03T04:59:15.881Z,-1.42
2023-02-03T05:03:17.910Z,-1.34
2023-02-03T05:07:20.007Z,-1.33
2023-02-03T05:11:22.592Z,-1.43
2023-02-03T05:15:24.607Z,-1.41
2023-02-03T05:19:26.740Z,-1.48
2023-02-03T05:23:28.668Z,-1.49
2023-02-03T05:27:31.033Z,-1.57
2023-02-03T05:31:33.738Z,-1.59
2023-02-03T05:35:36.180Z,-1.61
2023-02-03T05:39:38.150Z,-1.58
2023-02-03T05:43:40.111Z,-1.68
2023-02-03T05:47:42.137Z,-1.87
2023-02-03T05:51:44.032Z,-1.76
2023-02-03T05:55:45.648Z,-1.77
2023-02-03T05:59:47.663Z,-1.79
2023-02-03T06:03:50.100Z,-1.87
2023-02-03T06:07:52.499Z,-1.90
2023-02-03T06:11:54.735Z,-1.94
2023-02-03T06:15:57.511Z,-1.94
2023-02-03T06:19:59.553Z,-2.05
2023-02-03T06:24:01.641Z,-2.09
2023-02-03T06:28:04.115Z,-2.14
2023-02-03T06:32:07.174Z,-2.09
2023-02-03T06:36:09.974Z,-2.10
2023-02-03T06:40:12.721Z,-2.00
2023-02-03T06:44:14.720Z,-1.87
2023-02-03T06:48:16.720Z,-1.84
2023-02-03T06:52:19.188Z,-1.75
2023-02-03T06:56:21.375Z,-1.75
2023-02-03T07:00:24.389Z,-1.59
2023-02-03T07:04:30.079Z,-1.45
2023-02-03T07:08:32.106Z,-1.29
2023-02-03T07:12:34.199Z,-1.21
2023-02-03T07:16:37.503Z,-1.28
2023-02-03T07:20:39.519Z,-0.96
2023-02-03T07:24:41.577Z,-1.07
2023-02-03T07:28:43.584Z,-1.06
2023-02-03T07:32:49.898Z,-0.97
2023-02-03T07:36:52.224Z,-0.88
2023-02-03T07:40:54.310Z,-0.74
2023-02-03T07:44:56.199Z,-0.62
2023-02-03T07:48:58.219Z,-0.63
2023-02-03T07:53:00.827Z,-0.44
2023-02-03T07:57:02.912Z,-0.30
2023-02-03T08:01:14.015Z,-0.22
2023-02-03T08:05:17.290Z,-0.01
2023-02-03T08:09:19.332Z,0.12
2023-02-03T08:13:21.329Z,0.18
2023-02-03T08:17:23.438Z,0.35
2023-02-03T08:21:25.475Z,0.39
2023-02-03T08:25:27.333Z,0.44
2023-02-03T08:29:29.257Z,0.51
2023-02-03T08:33:31.212Z,0.43
2023-02-03T08:37:34.351Z,0.70
2023-02-03T08:41:36.521Z,0.83
2023-02-03T08:45:40.425Z,0.87
2023-02-03T08:49:42.695Z,1.02
2023-02-03T08:53:45.437Z,0.94
2023-02-03T08:57:47.958Z,0.86
2023-02-03T09:01:49.980Z,0.87
2023-02-03T09:05:52.123Z,1.12
2023-02-03T09:09:54.169Z,0.88
2023-02-03T09:13:57.876Z,0.96
2023-02-03T09:17:59.819Z,1.16
2023-02-03T09:22:01.724Z,1.27
2023-02-03T09:26:05.705Z,1.48
2023-02-03T09:30:08.126Z,1.42
2023-02-03T09:34:10.153Z,1.56
2023-02-03T09:38:12.125Z,1.69
2023-02-03T09:42:25.781Z,1.92
2023-02-03T09:46:32.876Z,1.89
2023-02-03T09:50:38.321Z,2.04
2023-02-03T09:54:53.038Z,1.92
2023-02-03T09:58:55.467Z,2.02
2023-02-03T10:03:29.498Z,2.00
2023-02-03T10:07:56.073Z,2.19
2023-02-03T10:12:49.399Z,2.05
2023-02-03T10:17:09.769Z,1.88
2023-02-03T10:21:16.952Z,1.92
2023-02-03T10:25:37.390Z,1.63
2023-02-03T10:29:45.621Z,1.68
2023-02-03T10:34:13.319Z,1.70
2023-02-03T10:38:25.147Z,1.39
2023-02-03T10:42:50.288Z,1.78
2023-02-03T10:46:52.249Z,2.14
2023-02-03T10:50:55.770Z,1.95
2023-02-03T10:55:02.407Z,2.15
2023-02-03T10:59:06.567Z,2.03
2023-02-03T11:03:25.953Z,2.21
2023-02-03T11:07:30.624Z,1.98
2023-02-03T11:11:34.282Z,2.29
2023-02-03T11:15:36.450Z,2.14
2023-02-03T11:19:39.409Z,1.99
2023-02-03T11:24:20.599Z,1.84
2023-02-03T11:28:28.379Z,1.96
2023-02-03T11:32:36.834Z,2.09
2023-02-03T11:36:38.822Z,2.14
2023-02-03T11:40:41.452Z,2.00
2023-02-03T11:44:43.473Z,1.93
2023-02-03T11:49:02.482Z,2.03
2023-02-03T11:53:32.218Z,2.19
2023-02-03T11:57:49.398Z,2.29
2023-02-03T12:02:10.235Z,2.00
2023-02-03T12:06:12.175Z,1.97
2023-02-03T12:11:00.306Z,2.09
2023-02-03T12:15:21.875Z,2.23
2023-02-03T12:19:48.269Z,1.97
2023-02-03T12:24:04.538Z,2.00
2023-02-03T12:28:33.189Z,2.01
2023-02-03T12:32:42.548Z,2.24
2023-02-03T12:36:53.588Z,1.82
2023-02-03T12:41:00.145Z,1.68
2023-02-03T12:45:11.085Z,1.76
2023-02-03T12:49:34.096Z,1.89
2023-02-03T12:53:42.300Z,1.92
2023-02-03T12:57:58.755Z,1.82
2023-02-03T13:02:13.849Z,1.85
2023-02-03T13:06:30.921Z,1.77
2023-02-03T13:10:48.757Z,1.73
2023-02-03T13:15:18.967Z,1.72
2023-02-03T13:19:25.680Z,1.61
2023-02-03T13:23:28.023Z,1.59
2023-02-03T13:27:42.902Z,1.53
2023-02-03T13:32:02.192Z,1.46
2023-02-03T13:36:22.515Z,1.48
2023-02-03T13:40:32.031Z,1.40
2023-02-03T13:44:35.303Z,1.16
2023-02-03T13:48:37.932Z,1.01
2023-02-03T13:52:57.444Z,1.09
2023-02-03T13:57:02.560Z,1.24
2023-02-03T14:01:40.649Z,0.87
2023-02-03T14:05:49.416Z,0.68
2023-02-03T14:10:14.108Z,0.47
2023-02-03T14:14:16.049Z,0.49
2023-02-03T14:18:32.873Z,0.55
2023-02-03T14:22:40.037Z,0.29
2023-02-03T14:26:54.086Z,0.29
2023-02-03T14:31:06.112Z,0.23
2023-02-03T14:35:17.815Z,0.32
2023-02-03T14:39:22.895Z,0.18
2023-02-03T14:44:03.208Z,0.12
2023-02-03T14:48:23.159Z,0.08
2023-02-03T14:52:36.372Z,0.06
2023-02-03T14:57:06.101Z,0.14
2023-02-03T15:01:23.078Z,0.12
2023-02-03T15:05:27.613Z,0.11
2023-02-03T15:09:51.709Z,0.16
2023-02-03T15:13:55.577Z,0.21
2023-02-03T15:18:00.296Z,0.12
2023-02-03T15:22:02.629Z,0.14
2023-02-03T15:26:19.834Z,0.18
2023-02-03T15:30:27.414Z,0.13
2023-02-03T15:34:47.991Z,0.04
2023-02-03T15:39:02.763Z,0.25
2023-02-03T15:43:12.723Z,0.13
2023-02-03T15:47:30.824Z,0.10
2023-02-03T15:51:43.884Z,0.18
2023-02-03T15:55:53.161Z,0.12
2023-02-03T15:59:59.999Z,0.15
2023-02-03T16:04:02.152Z,0.04
2023-02-03T16:08:37.309Z,0.13
2023-02-03T16:12:41.503Z,0.27
2023-02-03T16:17:04.254Z,0.22
2023-02-03T16:21:25.701Z,0.28
2023-02-03T16:25:30.590Z,0.26
2023-02-03T16:29:54.881Z,0.22
2023-02-03T16:34:15.049Z,0.16
2023-02-03T16:38:37.108Z,0.20
2023-02-03T16:42:58.879Z,0.09
2023-02-03T16:47:21.474Z,0.32
2023-02-03T16:51:23.458Z,0.24
2023-02-03T16:55:25.482Z,0.30
2023-02-03T16:59:27.414Z,0.31
2023-02-03T17:03:29.967Z,0.35
2023-02-03T17:07:32.024Z,0.31
2023-02-03T17:11:34.291Z,0.48
2023-02-03T17:15:44.249Z,0.34
2023-02-03T17:19:46.512Z,0.41
2023-02-03T17:23:49.104Z,0.31
2023-02-03T17:27:51.297Z,0.36
2023-02-03T17:31:53.481Z,0.34
2023-02-03T17:36:16.835Z,0.21
2023-02-03T17:53:18.403Z,0.47
2023-02-03T17:57:20.535Z,0.39
2023-02-03T18:01:25.218Z,0.49
2023-02-03T18:05:29.072Z,0.50
2023-02-03T18:09:31.357Z,0.57
2023-02-03T18:13:37.951Z,0.50
2023-02-03T18:17:40.206Z,0.51
2023-02-03T18:21:43.412Z,0.34
2023-02-03T18:25:51.776Z,0.39
2023-02-03T18:29:53.887Z,0.29
2023-02-03T18:33:56.473Z,0.29
2023-02-03T18:37:58.601Z,0.04
2023-02-03T18:42:00.848Z,0.16
2023-02-03T18:46:11.197Z,0.03
2023-02-03T18:50:13.305Z,0.18
2023-02-03T18:54:15.468Z,0.26
2023-02-03T18:58:17.847Z,0.24
2023-02-03T19:02:21.629Z,0.21
2023-02-03T19:06:24.778Z,0.27
2023-02-03T19:10:26.678Z,0.24
2023-02-03T19:14:28.925Z,0.38
2023-02-03T19:18:32.152Z,0.35
2023-02-03T19:22:34.264Z,0.41
2023-02-03T19:26:36.309Z,0.28
2023-02-03T19:30:38.631Z,0.27
2023-02-03T19:34:40.938Z,0.29
2023-02-03T19:38:43.206Z,0.15
2023-02-03T19:42:45.273Z,0.26
2023-02-03T19:46:47.625Z,0.25
2023-02-03T19:50:50.065Z,0.20
2023-02-03T19:54:56.107Z,0.17
2023-02-03T19:58:59.000Z,0.02
2023-02-03T20:03:02.109Z,0.13
2023-02-03T20:07:04.388Z,0.01
2023-02-03T20:11:06.765Z,0.11
2023-02-03T20:15:08.544Z,0.21
2023-02-03T20:19:11.728Z,0.13
2023-02-03T20:23:13.404Z,0.23
2023-02-03T20:27:15.666Z,0.15
2023-02-03T20:31:17.558Z,0.15
2023-02-03T20:35:19.941Z,0.06
2023-02-03T20:39:22.298Z,0.26
2023-02-03T20:43:27.307Z,0.06
2023-02-03T20:47:34.083Z,0.02
2023-02-03T20:51:36.302Z,0.25
2023-02-03T20:55:38.491Z,0.31
2023-02-03T20:59:40.965Z,0.40
2023-02-03T21:04:01.813Z,0.34
2023-02-03T21:08:15.294Z,0.46
2023-02-03T21:12:17.354Z,0.56
2023-02-03T21:16:22.996Z,0.56
2023-02-03T21:20:29.273Z,0.52
2023-02-03T21:24:38.085Z,0.41
2023-02-03T21:28:40.258Z,0.44
2023-02-03T21:32:44.047Z,0.26
2023-02-03T21:36:46.649Z,0.32
2023-02-03T21:40:48.418Z,0.28
2023-02-03T21:44:50.609Z,0.32
2023-02-03T21:48:56.805Z,0.18
2023-02-03T21:53:23.407Z,0.26
2023-02-03T21:57:25.635Z,0.10
2023-02-03T22:01:34.369Z,0.03
2023-02-03T22:05:36.522Z,0.10
2023-02-03T22:09:38.355Z,0.03
2023-02-03T22:13:40.554Z,0.02
2023-02-03T22:17:42.552Z,-0.13
2023-02-03T22:21:45.054Z,-0.13
2023-02-03T22:25:47.818Z,-0.22
2023-02-03T22:29:49.641Z,-0.25
2023-02-03T22:33:51.817Z,-0.24
2023-02-03T22:37:54.024Z,-0.35
2023-02-03T22:41:56.183Z,-0.31
2023-02-03T22:45:58.650Z,-0.42
2023-02-03T22:50:00.749Z,-0.47
2023-02-03T22:54:02.876Z,-0.37
2023-02-03T22:58:06.102Z,-0.45
2023-02-03T23:02:08.279Z,-0.46
2023-02-03T23:06:11.554Z,-0.53
2023-02-03T23:10:17.573Z,-0.46
2023-02-03T23:14:19.638Z,-0.43
2023-02-03T23:18:21.795Z,-0.50
2023-02-03T23:22:23.919Z,-0.53
2023-02-03T23:26:26.018Z,-0.62
2023-02-03T23:30:28.213Z,-0.60
2023-02-03T23:34:49.653Z,-0.57
2023-02-03T23:38:51.760Z,-0.73
2023-02-03T23:42:54.004Z,-0.75
2023-02-03T23:46:56.074Z,-0.72
2023-02-03T23:50:58.257Z,-0.53
2023-02-03T23:55:00.423Z,-0.69
2023-02-03T23:59:02.521Z,-0.72
